Time;durP1;ratioP1;P1;durP2;ratioP2;P2;SDS_P1;SDS_P2;PMS_P1;PMS_P2;Temp;Humidity;BMP_temperature;BMP_pressure;BME280_temperature;BME280_humidity;BME280_pressure;Samples;Min_cycle;Max_cycle;Signal;HPM_P1;HPM_P2
2021/10/19 00:00:13;;;;;;;23.83;13.52;;;;;;;;;;5015498;28;20054;-85
2021/10/19 00:02:39;;;;;;;21.25;13.88;;;;;;;;;;5018807;28;20103;-85
2021/10/19 00:05:06;;;;;;;23.27;14.45;;;;;;;;;;5018449;28;20511;-84
2021/10/19 00:07:32;;;;;;;21.67;13.38;;;;;;;;;;5051579;28;20025;-84
2021/10/19 00:09:57;;;;;;;21.05;13.38;;;;;;;;;;5036379;28;20083;-84
2021/10/19 00:12:23;;;;;;;20.15;13.20;;;;;;;;;;5036705;28;20021;-84
2021/10/19 00:14:48;;;;;;;20.58;13.32;;;;;;;;;;5035259;28;20032;-84
2021/10/19 00:17:14;;;;;;;19.67;12.57;;;;;;;;;;5039226;28;20447;-84
2021/10/19 00:19:40;;;;;;;22.20;13.35;;;;;;;;;;5042226;28;20528;-84
2021/10/19 00:22:06;;;;;;;17.77;12.77;;;;;;;;;;5042940;28;20029;-84
2021/10/19 00:24:31;;;;;;;20.23;12.82;;;;;;;;;;5042355;28;20080;-84
2021/10/19 00:26:57;;;;;;;21.33;12.93;;;;;;;;;;5043113;28;20091;-84
2021/10/19 00:29:22;;;;;;;21.15;12.57;;;;;;;;;;5041644;28;20029;-84
2021/10/19 00:31:48;;;;;;;19.65;13.10;;;;;;;;;;5042810;28;20389;-84
2021/10/19 00:34:13;;;;;;;22.13;12.95;;;;;;;;;;5044352;28;20043;-84
2021/10/19 00:36:39;;;;;;;19.27;12.65;;;;;;;;;;5044673;28;20025;-84
2021/10/19 00:39:04;;;;;;;21.95;13.05;;;;;;;;;;5044509;28;20108;-84
2021/10/19 00:41:29;;;;;;;20.40;13.25;;;;;;;;;;5043677;28;20481;-84
2021/10/19 00:43:55;;;;;;;22.15;13.18;;;;;;;;;;5042768;28;20025;-84
2021/10/19 00:46:21;;;;;;;25.40;14.32;;;;;;;;;;5043848;28;20026;-84
2021/10/19 00:48:46;;;;;;;25.77;13.95;;;;;;;;;;5043872;28;20021;-84
2021/10/19 00:51:14;;;;;;;20.25;13.30;;;;;;;;;;5043320;28;20390;-85
2021/10/19 00:53:40;;;;;;;22.17;14.50;;;;;;;;;;5044301;28;20026;-84
2021/10/19 00:56:07;;;;;;;21.70;14.00;;;;;;;;;;5043480;28;20026;-84
2021/10/19 00:58:32;;;;;;;20.02;12.68;;;;;;;;;;5044435;28;20021;-84
2021/10/19 01:00:58;;;;;;;21.92;13.18;;;;;;;;;;5048361;28;20054;-85
2021/10/19 01:03:23;;;;;;;26.55;13.43;;;;;;;;;;5044513;28;20036;-84
2021/10/19 01:05:49;;;;;;;19.98;13.15;;;;;;;;;;5041947;28;20025;-84
2021/10/19 01:08:14;;;;;;;19.13;13.13;;;;;;;;;;5042950;28;20025;-84
2021/10/19 01:10:39;;;;;;;22.40;14.32;;;;;;;;;;5045065;28;20022;-84
2021/10/19 01:13:05;;;;;;;19.27;13.25;;;;;;;;;;5042268;28;20045;-84
2021/10/19 01:15:33;;;;;;;18.75;12.30;;;;;;;;;;5043792;28;20108;-84
2021/10/19 01:17:59;;;;;;;22.10;13.75;;;;;;;;;;5043610;28;20021;-84
2021/10/19 01:20:30;;;;;;;20.30;13.32;;;;;;;;;;5044376;28;20091;-84
2021/10/19 01:22:57;;;;;;;19.80;12.82;;;;;;;;;;5041832;28;20029;-84
2021/10/19 01:25:25;;;;;;;22.70;13.48;;;;;;;;;;5043280;28;20029;-84
2021/10/19 01:27:54;;;;;;;26.30;14.40;;;;;;;;;;5041658;28;20022;-84
2021/10/19 01:30:20;;;;;;;20.42;13.25;;;;;;;;;;5037094;28;20045;-84
2021/10/19 01:32:46;;;;;;;19.67;13.13;;;;;;;;;;5040012;28;20029;-84
2021/10/19 01:35:12;;;;;;;19.50;13.95;;;;;;;;;;5039502;28;20026;-84
2021/10/19 01:37:38;;;;;;;19.80;13.75;;;;;;;;;;5041137;28;20063;-85
2021/10/19 01:40:07;;;;;;;20.30;13.68;;;;;;;;;;5040739;28;20022;-84
2021/10/19 01:42:34;;;;;;;20.77;13.38;;;;;;;;;;5037608;28;20415;-84
2021/10/19 01:45:00;;;;;;;22.08;14.00;;;;;;;;;;5036358;28;20048;-84
2021/10/19 01:47:25;;;;;;;22.83;14.60;;;;;;;;;;5036132;28;20038;-84
2021/10/19 01:49:50;;;;;;;22.00;13.52;;;;;;;;;;5036310;28;20025;-85
2021/10/19 01:52:16;;;;;;;21.88;14.18;;;;;;;;;;5038261;28;20532;-84
2021/10/19 01:54:41;;;;;;;20.55;13.48;;;;;;;;;;5037848;28;20029;-84
2021/10/19 01:57:07;;;;;;;21.48;14.30;;;;;;;;;;5036781;28;20021;-84
2021/10/19 01:59:32;;;;;;;21.23;13.55;;;;;;;;;;5036499;28;20044;-84
2021/10/19 02:01:57;;;;;;;23.45;13.35;;;;;;;;;;5035596;28;20061;-84
2021/10/19 02:04:22;;;;;;;24.58;13.55;;;;;;;;;;5028311;28;20061;-85
2021/10/19 02:06:48;;;;;;;20.38;13.85;;;;;;;;;;5017637;28;20125;-84
2021/10/19 02:09:13;;;;;;;29.30;14.63;;;;;;;;;;5001021;28;20022;-85
2021/10/19 02:11:38;;;;;;;22.70;15.10;;;;;;;;;;5017768;28;20088;-85
2021/10/19 02:14:04;;;;;;;21.75;13.55;;;;;;;;;;5017575;28;20076;-85
2021/10/19 02:16:29;;;;;;;19.50;13.32;;;;;;;;;;5000457;28;20018;-84
2021/10/19 02:18:54;;;;;;;19.92;13.77;;;;;;;;;;4999978;28;20521;-84
2021/10/19 02:21:19;;;;;;;23.80;13.98;;;;;;;;;;5017685;28;20041;-84
2021/10/19 02:23:45;;;;;;;20.25;13.23;;;;;;;;;;5000055;28;20029;-85
2021/10/19 02:26:10;;;;;;;23.90;14.05;;;;;;;;;;5000375;28;20025;-84
2021/10/19 02:28:35;;;;;;;22.95;13.48;;;;;;;;;;4999127;28;20026;-84
2021/10/19 02:31:01;;;;;;;20.85;13.55;;;;;;;;;;4999414;28;20386;-85
2021/10/19 02:33:26;;;;;;;20.35;12.43;;;;;;;;;;5016448;28;20022;-84
2021/10/19 02:35:51;;;;;;;21.90;14.00;;;;;;;;;;5016489;28;20032;-84
2021/10/19 02:38:16;;;;;;;21.83;12.80;;;;;;;;;;5016071;28;20030;-84
2021/10/19 02:40:42;;;;;;;21.60;13.35;;;;;;;;;;4997012;28;20026;-84
2021/10/19 02:43:07;;;;;;;22.17;13.52;;;;;;;;;;5015595;28;20053;-84
2021/10/19 02:45:32;;;;;;;21.77;13.70;;;;;;;;;;5015430;28;20453;-84
2021/10/19 02:47:58;;;;;;;21.85;13.35;;;;;;;;;;5015632;28;20053;-84
2021/10/19 02:50:23;;;;;;;19.05;13.50;;;;;;;;;;5016989;28;20033;-85
2021/10/19 02:52:48;;;;;;;19.73;12.85;;;;;;;;;;4999481;28;20120;-85
2021/10/19 02:55:16;;;;;;;20.98;13.20;;;;;;;;;;4998186;28;20091;-84
2021/10/19 02:57:42;;;;;;;21.45;13.40;;;;;;;;;;5016086;28;20473;-85
2021/10/19 03:00:09;;;;;;;20.50;13.05;;;;;;;;;;5035663;28;20013;-84
2021/10/19 03:02:34;;;;;;;22.70;14.20;;;;;;;;;;5050668;28;20028;-85
2021/10/19 03:04:59;;;;;;;20.55;14.32;;;;;;;;;;5046168;28;20025;-85
2021/10/19 03:07:25;;;;;;;22.90;13.48;;;;;;;;;;5020648;28;20427;-85
2021/10/19 03:09:50;;;;;;;38.88;16.05;;;;;;;;;;5034224;28;20025;-85
2021/10/19 03:12:15;;;;;;;25.00;14.43;;;;;;;;;;5035048;28;20090;-85
2021/10/19 03:14:41;;;;;;;25.80;14.02;;;;;;;;;;5035345;28;20412;-85
2021/10/19 03:17:06;;;;;;;22.60;14.35;;;;;;;;;;5035857;28;20476;-84
2021/10/19 03:19:32;;;;;;;39.90;14.10;;;;;;;;;;5036729;28;20148;-85
2021/10/19 03:21:57;;;;;;;20.73;13.20;;;;;;;;;;5044752;28;20032;-85
2021/10/19 03:24:22;;;;;;;23.00;14.07;;;;;;;;;;5037244;28;20041;-85
2021/10/19 03:26:48;;;;;;;19.50;13.77;;;;;;;;;;5035282;28;20033;-84
2021/10/19 03:29:13;;;;;;;27.52;12.98;;;;;;;;;;5033677;28;20049;-85
2021/10/19 03:31:38;;;;;;;20.40;13.35;;;;;;;;;;5035154;28;20057;-84
2021/10/19 03:34:04;;;;;;;21.30;13.73;;;;;;;;;;5033868;28;20048;-84
2021/10/19 03:36:30;;;;;;;24.00;13.68;;;;;;;;;;5051919;28;20032;-85
2021/10/19 03:38:55;;;;;;;20.52;13.07;;;;;;;;;;5036279;28;20404;-84
2021/10/19 03:41:20;;;;;;;21.02;14.63;;;;;;;;;;5036053;28;20048;-85
2021/10/19 03:43:46;;;;;;;22.85;13.25;;;;;;;;;;5035470;28;20057;-84
2021/10/19 03:46:11;;;;;;;24.33;13.57;;;;;;;;;;5042065;28;20002;-84
2021/10/19 03:48:36;;;;;;;21.52;14.40;;;;;;;;;;5039916;28;20025;-84
2021/10/19 03:51:02;;;;;;;21.40;15.02;;;;;;;;;;5033445;28;20029;-85
2021/10/19 03:53:27;;;;;;;19.75;13.38;;;;;;;;;;5034515;28;20447;-84
2021/10/19 03:55:55;;;;;;;26.27;14.25;;;;;;;;;;5033599;28;20022;-85
2021/10/19 03:58:20;;;;;;;19.00;13.55;;;;;;;;;;5035079;28;20025;-84
2021/10/19 04:00:46;;;;;;;23.23;13.55;;;;;;;;;;5034465;28;20091;-85
2021/10/19 04:03:11;;;;;;;20.70;13.60;;;;;;;;;;5035002;28;20068;-85
2021/10/19 04:05:37;;;;;;;21.15;13.95;;;;;;;;;;5010478;28;20029;-85
2021/10/19 04:08:02;;;;;;;24.17;13.23;;;;;;;;;;5015886;28;20049;-84
2021/10/19 04:10:28;;;;;;;24.73;12.63;;;;;;;;;;5015509;28;20032;-85
2021/10/19 04:12:54;;;;;;;19.30;13.32;;;;;;;;;;5015830;28;20030;-84
2021/10/19 04:15:19;;;;;;;20.33;13.88;;;;;;;;;;5014800;28;20022;-84
2021/10/19 04:17:44;;;;;;;18.30;12.63;;;;;;;;;;5014734;28;20030;-84
2021/10/19 04:20:10;;;;;;;21.83;13.93;;;;;;;;;;4997471;28;20478;-85
2021/10/19 04:22:36;;;;;;;22.02;13.05;;;;;;;;;;5014905;28;20061;-84
2021/10/19 04:25:02;;;;;;;21.83;12.95;;;;;;;;;;4997265;28;20018;-84
2021/10/19 04:27:28;;;;;;;25.23;13.15;;;;;;;;;;5014532;28;20018;-84
2021/10/19 04:29:53;;;;;;;19.55;13.23;;;;;;;;;;5016282;28;20049;-84
2021/10/19 04:32:19;;;;;;;26.73;12.55;;;;;;;;;;4999519;28;20168;-84
2021/10/19 04:34:44;;;;;;;21.52;13.05;;;;;;;;;;5014606;28;20053;-84
2021/10/19 04:37:10;;;;;;;20.90;14.05;;;;;;;;;;5014914;28;20036;-84
2021/10/19 04:39:35;;;;;;;20.92;13.77;;;;;;;;;;5014942;28;20034;-84
2021/10/19 04:42:02;;;;;;;22.45;12.88;;;;;;;;;;4998119;28;20481;-84
2021/10/19 04:44:28;;;;;;;25.23;14.00;;;;;;;;;;5014975;28;20030;-84
2021/10/19 04:46:54;;;;;;;20.30;12.50;;;;;;;;;;4998617;28;20030;-84
2021/10/19 04:49:19;;;;;;;20.60;13.25;;;;;;;;;;5015163;28;20022;-84
2021/10/19 04:51:45;;;;;;;18.67;12.00;;;;;;;;;;4997142;28;20025;-85
2021/10/19 04:54:10;;;;;;;22.98;12.45;;;;;;;;;;4996886;28;20021;-84
2021/10/19 04:56:35;;;;;;;16.30;12.45;;;;;;;;;;5015012;28;20058;-84
2021/10/19 04:59:01;;;;;;;18.65;12.38;;;;;;;;;;4997717;28;20018;-84
2021/10/19 05:01:26;;;;;;;19.92;11.45;;;;;;;;;;4998146;28;20033;-85
2021/10/19 05:03:52;;;;;;;26.15;12.80;;;;;;;;;;5014842;28;20152;-85
2021/10/19 05:06:18;;;;;;;18.50;11.32;;;;;;;;;;5017818;28;20018;-84
2021/10/19 05:08:43;;;;;;;20.10;12.48;;;;;;;;;;5017614;28;20478;-84
2021/10/19 05:11:08;;;;;;;22.55;11.75;;;;;;;;;;4999878;28;20464;-85
2021/10/19 05:13:34;;;;;;;20.60;13.15;;;;;;;;;;5017932;28;20033;-84
2021/10/19 05:15:59;;;;;;;18.95;12.50;;;;;;;;;;5017881;28;20040;-84
2021/10/19 05:18:24;;;;;;;17.13;11.95;;;;;;;;;;5017562;28;20061;-85
2021/10/19 05:20:50;;;;;;;18.40;12.60;;;;;;;;;;5000780;28;20378;-85
2021/10/19 05:23:15;;;;;;;16.95;12.57;;;;;;;;;;5018486;28;20105;-84
2021/10/19 05:25:41;;;;;;;17.95;11.88;;;;;;;;;;5018599;28;20426;-84
2021/10/19 05:28:06;;;;;;;15.90;11.98;;;;;;;;;;5018595;28;20058;-85
2021/10/19 05:30:31;;;;;;;16.52;11.95;;;;;;;;;;5017783;28;20030;-84
2021/10/19 05:32:57;;;;;;;22.48;12.30;;;;;;;;;;5000612;28;20066;-84
2021/10/19 05:35:22;;;;;;;18.45;12.32;;;;;;;;;;5018423;28;20109;-85
2021/10/19 05:37:47;;;;;;;24.13;12.25;;;;;;;;;;5018146;28;20496;-85
2021/10/19 05:40:13;;;;;;;18.08;11.75;;;;;;;;;;5021935;28;20624;-84
2021/10/19 05:42:38;;;;;;;20.25;12.15;;;;;;;;;;5036505;28;20026;-84
2021/10/19 05:45:05;;;;;;;18.63;12.80;;;;;;;;;;5015875;28;20029;-85
2021/10/19 05:47:30;;;;;;;19.23;11.77;;;;;;;;;;5002075;28;20057;-85
2021/10/19 05:49:55;;;;;;;19.52;13.07;;;;;;;;;;5002572;28;20025;-85
2021/10/19 05:52:21;;;;;;;22.52;13.50;;;;;;;;;;5001381;28;20026;-85
2021/10/19 05:54:46;;;;;;;21.33;14.13;;;;;;;;;;5008560;28;20088;-85
2021/10/19 05:57:11;;;;;;;22.35;12.88;;;;;;;;;;5017621;28;20034;-84
2021/10/19 05:59:37;;;;;;;19.27;12.98;;;;;;;;;;5005093;28;20030;-85
2021/10/19 06:02:03;;;;;;;21.60;14.60;;;;;;;;;;5017672;28;20029;-85
2021/10/19 06:04:29;;;;;;;21.48;14.00;;;;;;;;;;5020733;28;20026;-85
2021/10/19 06:06:59;;;;;;;27.40;15.65;;;;;;;;;;5016881;28;20123;-85
2021/10/19 06:09:26;;;;;;;30.08;16.38;;;;;;;;;;5048872;28;20108;-85
2021/10/19 06:11:53;;;;;;;26.85;17.52;;;;;;;;;;5058703;28;20024;-85
2021/10/19 06:14:19;;;;;;;25.52;17.75;;;;;;;;;;5059359;28;20025;-85
2021/10/19 06:16:44;;;;;;;35.58;18.90;;;;;;;;;;5042973;28;20067;-85
2021/10/19 06:19:10;;;;;;;30.60;19.23;;;;;;;;;;5062353;28;20502;-84
2021/10/19 06:21:35;;;;;;;32.47;19.23;;;;;;;;;;5049496;28;20021;-85
2021/10/19 06:24:01;;;;;;;33.67;20.15;;;;;;;;;;5066521;28;20029;-84
2021/10/19 06:26:26;;;;;;;40.15;23.15;;;;;;;;;;5047221;28;20039;-85
2021/10/19 06:28:51;;;;;;;41.03;22.10;;;;;;;;;;5060390;28;20078;-85
2021/10/19 06:31:17;;;;;;;38.30;22.52;;;;;;;;;;5044682;28;20447;-85
2021/10/19 06:33:42;;;;;;;45.00;23.60;;;;;;;;;;5046858;28;20020;-85
2021/10/19 06:36:07;;;;;;;37.72;21.70;;;;;;;;;;5064799;28;20044;-85
2021/10/19 06:38:33;;;;;;;36.08;21.17;;;;;;;;;;5063378;28;20028;-85
2021/10/19 06:40:58;;;;;;;38.17;20.83;;;;;;;;;;5064523;28;20029;-84
2021/10/19 06:43:24;;;;;;;32.35;19.73;;;;;;;;;;5062429;28;20036;-85
2021/10/19 06:45:49;;;;;;;39.67;20.38;;;;;;;;;;5062164;28;20100;-85
2021/10/19 06:48:15;;;;;;;35.33;20.65;;;;;;;;;;5045613;28;20067;-85
2021/10/19 06:50:40;;;;;;;38.15;22.10;;;;;;;;;;5062645;28;20032;-85
2021/10/19 06:53:05;;;;;;;36.67;21.55;;;;;;;;;;5044148;28;20438;-85
2021/10/19 06:55:31;;;;;;;34.10;19.92;;;;;;;;;;5045005;28;20025;-85
2021/10/19 06:57:57;;;;;;;35.30;19.85;;;;;;;;;;5061777;28;20070;-85
2021/10/19 07:00:23;;;;;;;32.72;20.20;;;;;;;;;;5062098;28;20395;-85
2021/10/19 07:02:48;;;;;;;32.90;20.75;;;;;;;;;;5060712;28;20112;-85
2021/10/19 07:05:15;;;;;;;42.50;21.38;;;;;;;;;;5040955;28;20060;-85
2021/10/19 07:07:42;;;;;;;34.30;21.65;;;;;;;;;;5060253;28;20028;-85
2021/10/19 07:10:08;;;;;;;31.40;20.13;;;;;;;;;;5061388;28;20020;-85
2021/10/19 07:12:36;;;;;;;31.98;19.05;;;;;;;;;;5061767;28;20051;-85
2021/10/19 07:15:03;;;;;;;32.80;20.40;;;;;;;;;;5061548;28;20028;-84
2021/10/19 07:17:28;;;;;;;31.92;18.85;;;;;;;;;;5061380;28;20186;-85
2021/10/19 07:19:55;;;;;;;32.15;19.27;;;;;;;;;;5061097;28;20064;-85
2021/10/19 07:22:20;;;;;;;30.38;19.40;;;;;;;;;;5061919;28;20029;-85
2021/10/19 07:24:46;;;;;;;31.30;18.77;;;;;;;;;;5060910;28;20027;-84
2021/10/19 07:27:11;;;;;;;31.13;18.45;;;;;;;;;;5060999;28;20052;-84
2021/10/19 07:29:36;;;;;;;31.08;19.15;;;;;;;;;;5060901;28;20029;-84
2021/10/19 07:32:02;;;;;;;32.95;19.80;;;;;;;;;;5059168;28;20028;-85
2021/10/19 07:34:28;;;;;;;29.02;19.80;;;;;;;;;;5055434;28;20025;-85
2021/10/19 07:36:53;;;;;;;32.90;19.75;;;;;;;;;;5055977;28;20373;-84
2021/10/19 07:39:19;;;;;;;29.58;19.98;;;;;;;;;;5056293;28;20507;-84
2021/10/19 07:41:45;;;;;;;33.40;20.08;;;;;;;;;;5056341;28;20029;-84
2021/10/19 07:44:10;;;;;;;33.85;20.48;;;;;;;;;;5059558;28;20108;-84
2021/10/19 07:46:36;;;;;;;34.17;20.30;;;;;;;;;;5060058;28;20044;-84
2021/10/19 07:49:02;;;;;;;30.95;19.95;;;;;;;;;;5041085;28;20036;-84
2021/10/19 07:51:28;;;;;;;30.58;18.52;;;;;;;;;;5058672;28;20029;-84
2021/10/19 07:53:53;;;;;;;29.63;19.98;;;;;;;;;;5059235;28;20069;-85
2021/10/19 07:56:20;;;;;;;27.83;19.02;;;;;;;;;;5041058;28;20472;-85
2021/10/19 07:58:47;;;;;;;29.42;20.80;;;;;;;;;;5054739;28;20020;-84
2021/10/19 08:01:13;;;;;;;29.63;20.40;;;;;;;;;;5060661;28;20021;-85
2021/10/19 08:03:38;;;;;;;30.23;19.42;;;;;;;;;;5054945;28;20032;-84
2021/10/19 08:06:03;;;;;;;30.73;18.92;;;;;;;;;;5052700;28;20400;-85
2021/10/19 08:08:29;;;;;;;26.13;19.15;;;;;;;;;;5005290;28;20040;-84
2021/10/19 08:10:54;;;;;;;30.10;20.55;;;;;;;;;;5020456;28;20089;-85
2021/10/19 08:13:20;;;;;;;32.67;19.52;;;;;;;;;;5002700;28;20073;-85
2021/10/19 08:15:46;;;;;;;26.85;18.80;;;;;;;;;;5003470;28;20022;-85
2021/10/19 08:18:12;;;;;;;29.15;18.98;;;;;;;;;;5033792;28;20053;-85
2021/10/19 08:20:38;;;;;;;25.65;19.35;;;;;;;;;;5031717;28;20037;-84
2021/10/19 08:23:03;;;;;;;31.98;20.08;;;;;;;;;;5021599;28;20026;-85
2021/10/19 08:25:29;;;;;;;28.25;20.15;;;;;;;;;;5002821;28;20539;-85
2021/10/19 08:27:55;;;;;;;28.50;19.27;;;;;;;;;;5019725;28;20499;-85
2021/10/19 08:30:21;;;;;;;28.80;20.10;;;;;;;;;;5001472;28;20021;-85
2021/10/19 08:32:48;;;;;;;26.77;19.33;;;;;;;;;;5020300;28;20026;-85
2021/10/19 08:35:17;;;;;;;28.75;19.92;;;;;;;;;;5019117;28;20440;-85
2021/10/19 08:37:43;;;;;;;26.75;19.15;;;;;;;;;;5018183;28;20114;-85
2021/10/19 08:40:09;;;;;;;28.70;19.60;;;;;;;;;;5022308;28;20062;-85
2021/10/19 08:42:42;;;;;;;27.88;20.63;;;;;;;;;;5021958;28;20026;-85
2021/10/19 08:45:09;;;;;;;29.08;19.92;;;;;;;;;;5023175;28;20025;-85
2021/10/19 08:47:35;;;;;;;36.60;20.77;;;;;;;;;;5022591;28;20032;-85
2021/10/19 08:50:03;;;;;;;31.90;20.90;;;;;;;;;;5023723;28;20034;-86
2021/10/19 08:52:28;;;;;;;31.25;19.60;;;;;;;;;;5020527;28;20030;-86
2021/10/19 08:54:53;;;;;;;28.30;19.83;;;;;;;;;;5007379;28;20120;-85
2021/10/19 08:57:19;;;;;;;36.80;20.52;;;;;;;;;;5018933;28;20068;-85
2021/10/19 08:59:45;;;;;;;33.60;18.65;;;;;;;;;;5018718;28;20022;-86
2021/10/19 09:02:12;;;;;;;30.88;20.58;;;;;;;;;;5019024;28;20036;-85
2021/10/19 09:04:38;;;;;;;37.13;20.52;;;;;;;;;;5019949;28;20378;-86
2021/10/19 09:07:04;;;;;;;26.02;19.75;;;;;;;;;;5027937;28;20022;-85
2021/10/19 09:09:29;;;;;;;28.88;19.52;;;;;;;;;;5040921;28;21190;-85
2021/10/19 09:11:56;;;;;;;26.73;19.02;;;;;;;;;;5032645;28;20082;-85
2021/10/19 09:14:33;;;;;;;38.22;18.65;;;;;;;;;;5051582;28;20032;-84
2021/10/19 09:17:00;;;;;;;32.75;18.13;;;;;;;;;;5048920;28;20048;-85
2021/10/19 09:19:27;;;;;;;26.42;19.50;;;;;;;;;;5043596;28;20090;-84
2021/10/19 09:21:56;;;;;;;25.83;18.77;;;;;;;;;;5042069;28;20031;-84
2021/10/19 09:24:27;;;;;;;23.42;18.10;;;;;;;;;;5040357;28;20021;-85
2021/10/19 09:27:08;;;;;;;26.00;19.40;;;;;;;;;;5059045;28;20070;-84
2021/10/19 09:29:36;;;;;;;24.52;18.73;;;;;;;;;;5040136;28;20028;-84
2021/10/19 09:32:05;;;;;;;27.77;19.90;;;;;;;;;;5057523;28;20028;-84
2021/10/19 09:34:32;;;;;;;26.25;19.30;;;;;;;;;;5040299;28;20488;-84
2021/10/19 09:36:58;;;;;;;26.65;19.73;;;;;;;;;;5057099;28;20400;-85
2021/10/19 09:39:28;;;;;;;28.90;21.05;;;;;;;;;;5056625;28;20021;-85
2021/10/19 09:41:54;;;;;;;26.92;21.13;;;;;;;;;;5039211;28;20032;-84
2021/10/19 09:44:19;;;;;;;28.27;22.10;;;;;;;;;;5057034;28;20029;-85
2021/10/19 09:46:45;;;;;;;35.03;22.88;;;;;;;;;;5038788;28;20106;-85
2021/10/19 09:49:14;;;;;;;28.13;22.33;;;;;;;;;;5056862;28;20024;-85
2021/10/19 09:51:39;;;;;;;31.25;21.58;;;;;;;;;;5056670;28;20079;-85
2021/10/19 09:54:10;;;;;;;30.00;22.92;;;;;;;;;;5038663;28;20033;-84
2021/10/19 09:56:37;;;;;;;31.40;22.58;;;;;;;;;;5038182;28;20075;-84
2021/10/19 09:59:03;;;;;;;30.65;21.80;;;;;;;;;;5056120;28;20115;-84
2021/10/19 10:01:29;;;;;;;29.65;22.55;;;;;;;;;;5056179;28;20150;-85
2021/10/19 10:03:55;;;;;;;31.35;22.15;;;;;;;;;;5037852;28;20071;-84
2021/10/19 10:06:22;;;;;;;30.02;24.08;;;;;;;;;;5039167;28;20432;-84
2021/10/19 10:08:47;;;;;;;27.98;22.13;;;;;;;;;;5037913;28;20084;-84
2021/10/19 10:11:13;;;;;;;29.05;22.77;;;;;;;;;;5019561;28;20037;-84
2021/10/19 10:13:38;;;;;;;28.85;22.98;;;;;;;;;;5037007;28;20396;-84
2021/10/19 10:16:09;;;;;;;26.15;21.77;;;;;;;;;;5018606;28;20485;-84
2021/10/19 10:18:35;;;;;;;27.02;22.02;;;;;;;;;;5026863;28;20017;-84
2021/10/19 10:21:14;;;;;;;27.67;22.35;;;;;;;;;;5038792;28;20036;-85
2021/10/19 10:23:42;;;;;;;29.88;21.30;;;;;;;;;;5019740;28;20022;-85
2021/10/19 10:26:11;;;;;;;28.55;22.42;;;;;;;;;;5037269;28;20021;-85
2021/10/19 10:28:37;;;;;;;29.92;23.52;;;;;;;;;;5036233;28;20032;-85
2021/10/19 10:31:16;;;;;;;27.92;21.70;;;;;;;;;;5036565;28;20025;-85
2021/10/19 10:33:43;;;;;;;27.20;21.17;;;;;;;;;;5036506;28;20476;-84
2021/10/19 10:36:13;;;;;;;29.00;19.95;;;;;;;;;;5035897;28;20032;-85
2021/10/19 10:39:00;;;;;;;23.20;18.17;;;;;;;;;;5018361;28;20025;-85
2021/10/19 10:41:36;;;;;;;18.73;14.68;;;;;;;;;;5018736;28;20033;-85
2021/10/19 10:44:02;;;;;;;23.83;14.73;;;;;;;;;;5036046;28;20108;-84
2021/10/19 10:46:27;;;;;;;34.83;16.13;;;;;;;;;;5019307;28;20049;-84
2021/10/19 10:48:56;;;;;;;16.45;14.23;;;;;;;;;;5001588;28;20041;-85
2021/10/19 10:51:33;;;;;;;18.40;13.80;;;;;;;;;;5018494;28;20021;-84
2021/10/19 10:53:58;;;;;;;18.88;14.32;;;;;;;;;;5046455;28;20025;-84
2021/10/19 10:56:25;;;;;;;17.45;14.38;;;;;;;;;;5035636;28;20175;-85
2021/10/19 10:58:51;;;;;;;15.90;13.68;;;;;;;;;;5049132;28;20076;-84
2021/10/19 11:01:21;;;;;;;20.98;14.57;;;;;;;;;;5041863;28;20061;-85
2021/10/19 11:03:55;;;;;;;18.83;15.85;;;;;;;;;;5017859;28;20025;-85
2021/10/19 11:06:22;;;;;;;20.85;16.55;;;;;;;;;;5018497;28;20017;-85
2021/10/19 11:08:56;;;;;;;19.73;16.23;;;;;;;;;;5035646;28;20017;-84
2021/10/19 11:11:22;;;;;;;18.48;15.98;;;;;;;;;;5035400;28;20460;-85
2021/10/19 11:13:54;;;;;;;22.60;16.95;;;;;;;;;;5035291;28;20088;-85
2021/10/19 11:16:31;;;;;;;20.30;17.13;;;;;;;;;;5017983;28;20495;-84
2021/10/19 11:18:57;;;;;;;19.42;16.33;;;;;;;;;;5035382;28;20478;-85
2021/10/19 11:21:23;;;;;;;22.85;18.10;;;;;;;;;;5017093;28;20401;-85
2021/10/19 11:23:48;;;;;;;21.75;17.45;;;;;;;;;;5034698;28;20025;-84
2021/10/19 11:26:14;;;;;;;21.58;17.50;;;;;;;;;;5016621;28;20022;-85
2021/10/19 11:28:41;;;;;;;21.48;15.85;;;;;;;;;;5034756;28;20036;-85
2021/10/19 11:31:07;;;;;;;21.23;17.13;;;;;;;;;;5016412;28;20059;-85
2021/10/19 11:33:43;;;;;;;18.70;15.57;;;;;;;;;;5034105;28;20076;-85
2021/10/19 11:36:09;;;;;;;25.67;15.57;;;;;;;;;;5035258;28;20017;-86
2021/10/19 11:38:47;;;;;;;18.17;15.02;;;;;;;;;;5034026;28;20033;-83
2021/10/19 11:41:15;;;;;;;17.30;14.43;;;;;;;;;;5034749;28;20473;-84
2021/10/19 11:43:45;;;;;;;16.83;14.82;;;;;;;;;;5024426;28;20020;-83
2021/10/19 11:46:13;;;;;;;16.23;14.25;;;;;;;;;;5018525;28;20499;-83
2021/10/19 11:48:39;;;;;;;16.88;13.60;;;;;;;;;;5040802;28;20476;-84
2021/10/19 11:51:07;;;;;;;16.13;13.82;;;;;;;;;;5038391;28;20028;-84
2021/10/19 11:53:34;;;;;;;14.80;13.15;;;;;;;;;;5034302;28;20029;-84
2021/10/19 11:56:01;;;;;;;15.27;12.77;;;;;;;;;;5016467;28;20057;-84
2021/10/19 11:58:27;;;;;;;14.75;13.13;;;;;;;;;;5034069;28;20029;-84
2021/10/19 12:00:52;;;;;;;17.13;12.38;;;;;;;;;;5034668;28;20045;-84
2021/10/19 12:03:18;;;;;;;14.45;12.95;;;;;;;;;;5036989;28;20026;-84
2021/10/19 12:05:43;;;;;;;14.10;12.60;;;;;;;;;;5034565;28;20029;-84
2021/10/19 12:08:09;;;;;;;13.63;12.23;;;;;;;;;;5018766;28;20032;-85
2021/10/19 12:10:35;;;;;;;16.00;12.82;;;;;;;;;;5022558;28;20551;-84
2021/10/19 12:13:10;;;;;;;15.07;13.27;;;;;;;;;;5051816;28;20056;-84
2021/10/19 12:15:36;;;;;;;19.45;14.63;;;;;;;;;;5038114;28;20114;-83
2021/10/19 12:18:05;;;;;;;14.30;12.80;;;;;;;;;;5054867;28;20043;-84
2021/10/19 12:20:34;;;;;;;15.95;14.25;;;;;;;;;;5035667;28;20017;-84
2021/10/19 12:23:02;;;;;;;15.75;13.93;;;;;;;;;;5053920;28;20025;-84
2021/10/19 12:25:42;;;;;;;16.60;14.90;;;;;;;;;;5055425;28;20546;-84
2021/10/19 12:28:14;;;;;;;17.55;15.18;;;;;;;;;;5053671;28;20531;-84
2021/10/19 12:30:41;;;;;;;16.90;15.07;;;;;;;;;;5053650;28;20082;-84
2021/10/19 12:33:20;;;;;;;16.73;14.95;;;;;;;;;;5037485;28;20055;-84
2021/10/19 12:35:57;;;;;;;18.48;16.10;;;;;;;;;;5037277;28;20032;-84
2021/10/19 12:38:44;;;;;;;20.15;16.65;;;;;;;;;;5037942;28;20396;-84
2021/10/19 12:41:13;;;;;;;19.55;17.45;;;;;;;;;;5035373;28;20120;-85
2021/10/19 12:43:39;;;;;;;17.42;15.15;;;;;;;;;;5035388;28;20094;-85
2021/10/19 12:46:06;;;;;;;20.40;16.20;;;;;;;;;;5035568;28;20492;-84
2021/10/19 12:48:33;;;;;;;17.30;15.50;;;;;;;;;;5053641;28;20025;-84
2021/10/19 12:51:04;;;;;;;18.67;15.88;;;;;;;;;;5035958;28;20056;-84
2021/10/19 12:53:29;;;;;;;18.63;16.35;;;;;;;;;;5053791;28;20025;-84
2021/10/19 12:55:55;;;;;;;17.65;15.75;;;;;;;;;;5053326;28;20480;-84
2021/10/19 12:58:21;;;;;;;18.55;16.48;;;;;;;;;;5053454;28;20104;-84
2021/10/19 13:00:46;;;;;;;19.35;16.65;;;;;;;;;;5035731;28;20028;-84
2021/10/19 13:03:11;;;;;;;21.25;17.50;;;;;;;;;;5053410;28;20029;-84
2021/10/19 13:05:37;;;;;;;28.83;18.95;;;;;;;;;;5053390;28;20476;-84
2021/10/19 13:08:04;;;;;;;21.70;18.25;;;;;;;;;;5052952;28;20029;-85
2021/10/19 13:10:30;;;;;;;24.33;18.27;;;;;;;;;;5035417;28;20117;-84
2021/10/19 13:12:55;;;;;;;25.95;18.90;;;;;;;;;;5034897;28;20068;-85
2021/10/19 13:15:21;;;;;;;28.13;19.95;;;;;;;;;;5053027;28;20056;-84
2021/10/19 13:17:47;;;;;;;27.70;20.55;;;;;;;;;;5051725;28;20029;-85
2021/10/19 13:20:14;;;;;;;25.23;20.60;;;;;;;;;;5053242;28;20078;-84
2021/10/19 13:22:40;;;;;;;23.30;19.27;;;;;;;;;;5034720;28;20468;-85
2021/10/19 13:25:06;;;;;;;26.65;21.02;;;;;;;;;;5053965;28;20021;-84
2021/10/19 13:27:31;;;;;;;25.48;20.17;;;;;;;;;;5056796;28;20075;-84
2021/10/19 13:29:56;;;;;;;25.85;21.00;;;;;;;;;;5052536;28;20093;-84
2021/10/19 13:32:21;;;;;;;26.58;20.13;;;;;;;;;;5056171;28;20044;-84
2021/10/19 13:34:47;;;;;;;27.65;19.65;;;;;;;;;;5059220;28;20091;-84
2021/10/19 13:37:12;;;;;;;28.48;20.92;;;;;;;;;;5039132;28;20024;-84
2021/10/19 13:39:38;;;;;;;28.98;21.63;;;;;;;;;;5056459;28;20111;-85
2021/10/19 13:42:03;;;;;;;25.58;20.17;;;;;;;;;;5056633;28;20032;-84
2021/10/19 13:44:28;;;;;;;29.08;21.42;;;;;;;;;;5039770;28;20025;-85
2021/10/19 13:46:54;;;;;;;27.80;21.75;;;;;;;;;;5038639;28;20036;-84
2021/10/19 13:49:19;;;;;;;27.45;20.88;;;;;;;;;;5039009;28;20028;-85
2021/10/19 13:51:45;;;;;;;26.73;21.20;;;;;;;;;;5056032;28;20481;-85
2021/10/19 13:54:10;;;;;;;27.52;19.77;;;;;;;;;;5038127;28;20051;-84
2021/10/19 13:56:36;;;;;;;33.75;23.17;;;;;;;;;;5055674;28;20029;-85
2021/10/19 13:59:06;;;;;;;27.48;20.88;;;;;;;;;;5056011;28;20029;-84
2021/10/19 14:01:31;;;;;;;32.20;22.30;;;;;;;;;;5056228;28;20036;-84
2021/10/19 14:03:57;;;;;;;28.20;20.55;;;;;;;;;;5056448;28;20036;-85
2021/10/19 14:06:22;;;;;;;27.67;20.45;;;;;;;;;;5055954;28;20024;-85
2021/10/19 14:08:48;;;;;;;30.05;21.27;;;;;;;;;;5035514;28;20063;-85
2021/10/19 14:11:13;;;;;;;25.73;19.17;;;;;;;;;;5021626;28;20033;-85